Airfield :
LOGIN :

Register | Disclaimer

   EN    FR    IT 

 










Legend :    VFR   Marginal VFR   IFR   Intensive IFR   Very Intensive IFR
Visi :
Ceiling :
>= 8 km
>= 3000ft
5 to 8 km
1000 to 3000 ft
1500m to 5 km
500 to 1000 ft
800 to 1500m
200 to 500 ft
< 800m
< 200 ft
Symbols :   Thunderstorms  Fog  Heavy snow  Heavy precipitations  Wind > 20 kt
SIGMETs :     Misc.  Thunderstorms  Icing  Turbulence  Mountain Waves  Volcanic Ashes







- Airport Elevation : 1822 ft


ETSL - Lechfeld AB

CURRENT METAR :
  • 251548Z 31015G25KT 8000 SCT030CB SCT130 05/M01 Q1020 RETSGS BLU+BLU+ TEMPO GRN

EXPIRED METARs :
  • 251537Z 27010G30KT 2000 TSGS BKN030CB BKN130 06/M01 Q1020 YLO BLU+ TEMPO YLO
  • 251520Z 28012KT 9999 VCSH SCT030CB SCT130 06/M01 Q1019 BLU+BLU+ TEMPO GRN
  • 251420Z 30010G20KT 9999 VCSH FEW020 SCT035CB BKN250 03/M00 Q1020 BLU+BLU+ TEMPO GRN
  • 251400Z 27015G34KT 4000 R21/1900D -SHGSRA BKN040CB BKN070 06/M01 Q1020 GRN BLU TEMPO GRN
  • 251325Z 25012KT 9999 -SHGSRA BKN040CB BKN070 05/M01 Q1019 BLU BLU TEMPO GRN
  • 251314Z 27014KT 9999 -SHGS BKN040CB BKN070 05/M00 Q1019 BLU BLU

TAF AMD TAF ETSL
Valid from the 25 at 15:00 until the 26 at 00:00 UTC


251526Z 2515/2524 27015G25KT 9999 NSW SCT020 BKN030
TEMPO 2515/2524 28015G30KT 4000 SHRA BKN012 BKN020CB
PROB30 2515/2521 28020G35KT 3000 TSGS BKN005 BKN015CB CANCEL 1620 BY ETGL
No reported NOTAMs for that airfield.



MET'MAP, your aeronautical weather chart ! - Copyright ORBIFLY December 2007 - Disclaimer

ORBIFLY MET'MAP TEAM :

Programming & Development : Alexandra Zaïnal
Concept & Development : Baudouin d'Aumeries
Co-Development & Prog : Marc-Olivier Méhu
Technical & hardware support : Manuel Goepfert

Contact : metmap@orbifly.com




SOURCES & CREDITS :

   NOAA